createdAt,value
2019-03-19T00:00:35.900Z,64.60
2019-03-19T00:03:07.096Z,64.70
2019-03-19T00:05:38.052Z,64.90
2019-03-19T00:08:09.094Z,64.90
2019-03-19T00:10:39.982Z,65.30
2019-03-19T00:13:11.021Z,65.20
2019-03-19T00:15:41.866Z,65.10
2019-03-19T00:18:12.825Z,65.00
2019-03-19T00:20:43.679Z,64.80
2019-03-19T00:23:14.665Z,64.70
2019-03-19T00:25:45.534Z,64.80
2019-03-19T00:28:16.495Z,64.50
2019-03-19T00:30:47.383Z,64.60
2019-03-19T00:33:18.356Z,64.50
2019-03-19T00:35:49.275Z,64.50
2019-03-19T00:38:20.234Z,64.30
2019-03-19T00:40:51.115Z,64.10
2019-03-19T00:43:23.139Z,63.90
2019-03-19T00:45:55.094Z,64.00
2019-03-19T00:48:27.244Z,64.00
2019-03-19T00:50:58.204Z,64.70
2019-03-19T00:53:29.174Z,64.20
2019-03-19T00:56:00.020Z,64.20
2019-03-19T00:58:30.966Z,64.40
2019-03-19T01:01:01.890Z,64.40
2019-03-19T01:03:32.861Z,64.40
2019-03-19T01:06:04.497Z,64.30
2019-03-19T01:08:35.574Z,64.20
2019-03-19T01:11:06.720Z,64.30
2019-03-19T01:13:37.967Z,64.10
2019-03-19T01:16:08.853Z,64.20
2019-03-19T01:18:39.800Z,64.20
2019-03-19T01:21:10.823Z,64.40
2019-03-19T01:23:41.813Z,64.50
2019-03-19T01:26:14.867Z,64.30
2019-03-19T01:28:45.900Z,64.40
2019-03-19T01:31:16.899Z,64.30
2019-03-19T01:33:47.956Z,64.30
2019-03-19T01:36:18.934Z,64.40
2019-03-19T01:38:49.882Z,64.70
2019-03-19T01:41:20.807Z,64.80
2019-03-19T01:43:51.872Z,64.50
2019-03-19T01:46:22.753Z,64.40
2019-03-19T01:48:53.708Z,64.60
2019-03-19T01:51:24.911Z,64.90
2019-03-19T01:53:56.008Z,65.20
2019-03-19T01:56:26.973Z,65.30
2019-03-19T01:58:58.086Z,65.30
2019-03-19T02:01:28.959Z,65.30
2019-03-19T02:04:00.021Z,65.30
2019-03-19T02:06:30.957Z,65.50
2019-03-19T02:09:01.906Z,65.40
2019-03-19T02:11:34.461Z,65.40
2019-03-19T02:14:06.505Z,65.30
2019-03-19T02:16:37.369Z,65.00
2019-03-19T02:19:08.367Z,65.10
2019-03-19T02:21:39.249Z,65.00
2019-03-19T02:24:10.226Z,65.30
2019-03-19T02:26:41.176Z,65.30
2019-03-19T02:29:13.294Z,65.10
2019-03-19T02:31:44.160Z,65.60
2019-03-19T02:34:15.205Z,65.50
2019-03-19T02:36:46.164Z,65.50
2019-03-19T02:39:17.228Z,65.40
2019-03-19T02:41:48.088Z,65.50
2019-03-19T02:44:20.181Z,65.60
2019-03-19T02:46:51.175Z,65.60
2019-03-19T02:49:22.113Z,65.80
2019-03-19T02:51:53.022Z,65.80
2019-03-19T02:54:24.062Z,65.90
2019-03-19T02:56:55.135Z,66.00
2019-03-19T02:59:26.242Z,66.10
2019-03-19T03:01:57.366Z,66.20
2019-03-19T03:04:28.483Z,66.40
2019-03-19T03:06:59.537Z,66.50
2019-03-19T03:09:30.520Z,66.60
2019-03-19T03:12:02.384Z,66.70
2019-03-19T03:14:33.445Z,66.80
2019-03-19T03:17:05.963Z,66.70
2019-03-19T03:19:36.975Z,66.60
2019-03-19T03:22:09.050Z,66.50
2019-03-19T03:24:39.950Z,66.40
2019-03-19T03:27:10.850Z,66.20
2019-03-19T03:29:41.770Z,66.10
2019-03-19T03:32:12.713Z,65.70
2019-03-19T03:34:43.757Z,65.50
2019-03-19T03:37:14.722Z,65.20
2019-03-19T03:39:45.717Z,65.00
2019-03-19T03:42:16.697Z,65.70
2019-03-19T03:44:47.781Z,64.80
2019-03-19T03:47:18.780Z,64.60
2019-03-19T03:49:49.787Z,64.30
2019-03-19T03:52:20.655Z,64.40
2019-03-19T03:54:51.678Z,64.30
2019-03-19T03:57:22.645Z,64.30
2019-03-19T03:59:53.854Z,64.10
2019-03-19T04:02:24.841Z,64.90
2019-03-19T04:04:56.139Z,64.20
2019-03-19T04:07:27.178Z,64.40
2019-03-19T04:09:58.197Z,64.30
2019-03-19T04:12:29.098Z,64.40
2019-03-19T04:15:00.409Z,64.40
2019-03-19T04:17:31.478Z,64.60
2019-03-19T04:20:02.514Z,65.50
2019-03-19T04:22:33.366Z,64.80
2019-03-19T04:25:05.402Z,64.70
2019-03-19T04:27:38.814Z,64.90
2019-03-19T04:30:09.603Z,64.80
2019-03-19T04:32:40.530Z,65.00
2019-03-19T04:35:11.591Z,65.30
2019-03-19T04:37:42.781Z,65.30
2019-03-19T04:40:14.042Z,65.40
2019-03-19T04:42:45.302Z,65.50
2019-03-19T04:45:16.517Z,65.60
2019-03-19T04:47:47.692Z,65.60
2019-03-19T04:50:19.049Z,65.70
2019-03-19T04:52:50.296Z,65.60
2019-03-19T04:55:21.989Z,65.60
2019-03-19T04:57:53.179Z,65.70
2019-03-19T05:00:24.379Z,65.70
2019-03-19T05:02:55.486Z,65.80
2019-03-19T05:05:26.645Z,65.70
2019-03-19T05:07:57.576Z,65.70
2019-03-19T05:10:28.684Z,65.60
2019-03-19T05:13:00.889Z,65.40
2019-03-19T05:15:32.223Z,65.30
2019-03-19T05:18:03.327Z,65.20
2019-03-19T05:20:34.346Z,65.00
2019-03-19T05:23:05.655Z,65.00
2019-03-19T05:25:36.886Z,65.00
2019-03-19T05:28:07.976Z,64.90
2019-03-19T05:30:39.175Z,64.80
2019-03-19T05:33:10.224Z,64.60
2019-03-19T05:35:41.522Z,64.40
2019-03-19T05:38:12.607Z,64.40
2019-03-19T05:40:43.713Z,64.20
2019-03-19T05:43:15.897Z,63.90
2019-03-19T05:45:46.934Z,63.70
2019-03-19T05:48:18.026Z,63.40
2019-03-19T05:50:49.237Z,63.40
2019-03-19T05:53:20.447Z,63.30
2019-03-19T05:55:51.577Z,63.30
2019-03-19T05:58:22.647Z,63.00
2019-03-19T06:00:53.727Z,63.00
2019-03-19T06:03:24.835Z,62.80
2019-03-19T06:05:56.230Z,62.70
2019-03-19T06:08:27.498Z,62.30
2019-03-19T06:10:58.638Z,62.40
2019-03-19T06:13:29.606Z,61.80
2019-03-19T06:16:00.707Z,61.70
2019-03-19T06:18:35.410Z,61.40
2019-03-19T06:21:04.439Z,61.00
2019-03-19T06:23:35.580Z,60.80
2019-03-19T06:26:06.957Z,60.60
2019-03-19T06:28:38.046Z,60.70
2019-03-19T06:31:10.247Z,60.20
2019-03-19T06:33:41.258Z,60.30
2019-03-19T06:36:12.358Z,59.70
2019-03-19T06:38:43.486Z,59.40
2019-03-19T06:41:14.695Z,59.20
2019-03-19T06:43:45.588Z,59.10
2019-03-19T06:46:17.414Z,59.10
2019-03-19T06:48:49.535Z,59.00
2019-03-19T06:51:20.587Z,58.60
2019-03-19T06:53:51.637Z,58.00
2019-03-19T06:56:23.333Z,58.00
2019-03-19T06:58:54.306Z,57.70
2019-03-19T07:01:26.038Z,57.40
2019-03-19T07:03:58.698Z,56.50
2019-03-19T07:06:30.293Z,56.30
2019-03-19T07:09:02.314Z,56.00
2019-03-19T07:11:34.147Z,55.10
2019-03-19T07:14:05.869Z,54.30
2019-03-19T07:16:37.453Z,53.70
2019-03-19T07:19:09.146Z,53.70
2019-03-19T07:21:43.795Z,52.90
2019-03-19T07:24:15.488Z,52.60
2019-03-19T07:26:46.663Z,52.20
2019-03-19T07:29:18.182Z,52.80
2019-03-19T07:31:49.479Z,52.70
2019-03-19T07:34:21.198Z,52.60
2019-03-19T07:36:53.074Z,51.70
2019-03-19T07:39:24.898Z,52.10
2019-03-19T07:41:56.550Z,52.30
2019-03-19T07:44:28.205Z,50.70
2019-03-19T07:46:59.868Z,51.00
2019-03-19T07:49:31.669Z,51.20
2019-03-19T07:52:03.256Z,50.80
2019-03-19T07:54:34.787Z,50.80
2019-03-19T07:57:06.916Z,50.60
2019-03-19T07:59:38.643Z,50.70
2019-03-19T08:02:10.331Z,51.50
2019-03-19T08:04:41.971Z,52.30
2019-03-19T08:07:13.901Z,51.40
2019-03-19T08:09:45.347Z,52.10
2019-03-19T08:12:16.927Z,51.10
2019-03-19T08:14:48.445Z,50.70
2019-03-19T08:17:20.306Z,50.10
2019-03-19T08:19:51.898Z,49.20
2019-03-19T08:22:23.839Z,48.90
2019-03-19T08:24:55.550Z,48.60
2019-03-19T08:27:27.345Z,49.20
2019-03-19T08:29:58.921Z,48.30
2019-03-19T08:32:30.705Z,48.20
2019-03-19T08:35:02.427Z,47.00
2019-03-19T08:37:34.167Z,46.50
2019-03-19T08:40:06.507Z,46.50
2019-03-19T08:42:38.191Z,46.90
2019-03-19T08:45:11.668Z,47.90
2019-03-19T08:47:43.509Z,48.70
2019-03-19T08:50:16.827Z,48.90
2019-03-19T08:52:48.682Z,47.30
2019-03-19T08:55:20.309Z,46.20
2019-03-19T08:57:52.110Z,45.70
2019-03-19T09:00:24.397Z,44.10
2019-03-19T09:02:56.293Z,41.90
2019-03-19T09:05:27.891Z,41.90
2019-03-19T09:07:59.760Z,42.80
2019-03-19T09:10:31.466Z,41.00
2019-03-19T09:13:03.877Z,40.40
2019-03-19T09:15:35.966Z,40.00
2019-03-19T09:18:07.744Z,41.60
2019-03-19T09:20:39.422Z,42.90
2019-03-19T09:23:12.697Z,43.60
2019-03-19T09:25:44.787Z,44.10
2019-03-19T09:28:16.556Z,44.70
2019-03-19T09:30:48.280Z,44.90
2019-03-19T09:33:20.089Z,43.50
2019-03-19T09:35:51.852Z,44.40
2019-03-19T09:38:23.967Z,44.40
2019-03-19T09:40:56.581Z,44.10
2019-03-19T09:43:29.468Z,43.20
2019-03-19T09:46:01.194Z,41.80
2019-03-19T09:48:32.693Z,40.40
2019-03-19T09:51:04.213Z,38.50
2019-03-19T09:53:36.056Z,38.00
2019-03-19T09:56:08.173Z,38.20
2019-03-19T09:58:39.803Z,39.30
2019-03-19T10:01:11.494Z,40.40
2019-03-19T10:03:43.204Z,41.80
2019-03-19T10:06:15.736Z,42.70
2019-03-19T10:08:47.983Z,43.50
2019-03-19T10:11:19.922Z,42.80
2019-03-19T10:13:52.146Z,40.70
2019-03-19T10:16:25.396Z,39.30
2019-03-19T10:18:57.033Z,38.00
2019-03-19T10:21:29.023Z,37.20
2019-03-19T10:24:00.668Z,35.00
2019-03-19T10:26:32.366Z,34.70
2019-03-19T10:29:03.812Z,35.30
2019-03-19T10:31:35.465Z,34.50
2019-03-19T10:34:07.140Z,33.30
2019-03-19T10:36:39.097Z,33.20
2019-03-19T10:39:11.065Z,33.20
2019-03-19T10:41:42.555Z,34.60
2019-03-19T10:44:13.704Z,34.70
2019-03-19T10:46:45.179Z,34.10
2019-03-19T10:49:16.770Z,32.90
2019-03-19T10:51:48.720Z,32.90
2019-03-19T10:54:19.935Z,31.90
2019-03-19T10:56:51.531Z,30.40
2019-03-19T10:59:23.293Z,29.40
2019-03-19T11:01:54.928Z,30.40
2019-03-19T11:04:27.159Z,31.30
2019-03-19T11:06:59.581Z,32.90
2019-03-19T11:09:31.206Z,33.10
2019-03-19T11:12:03.091Z,32.80
2019-03-19T11:14:34.971Z,31.30
2019-03-19T11:17:06.727Z,30.30
2019-03-19T11:19:38.651Z,30.20
2019-03-19T11:22:10.448Z,29.40
2019-03-19T11:24:42.087Z,28.90
2019-03-19T11:27:14.108Z,28.00
2019-03-19T11:29:46.863Z,27.70
2019-03-19T11:32:19.249Z,28.40
2019-03-19T11:34:51.736Z,28.20
2019-03-19T11:37:24.012Z,28.80
2019-03-19T11:39:55.847Z,28.30
2019-03-19T11:42:27.289Z,27.40
2019-03-19T11:44:59.463Z,27.00
2019-03-19T11:47:31.406Z,27.00
2019-03-19T11:50:06.828Z,26.00
2019-03-19T11:52:40.264Z,26.50
2019-03-19T11:55:12.568Z,25.70
2019-03-19T11:57:44.441Z,26.30
2019-03-19T12:00:26.280Z,25.70
2019-03-19T12:02:58.285Z,25.00
2019-03-19T12:05:30.521Z,24.30
2019-03-19T12:08:02.599Z,23.80
2019-03-19T12:10:34.768Z,23.80
2019-03-19T12:13:07.239Z,24.00
2019-03-19T12:15:39.248Z,23.80
2019-03-19T12:18:11.560Z,23.80
2019-03-19T12:20:43.980Z,24.60
2019-03-19T12:23:16.279Z,23.40
2019-03-19T12:25:48.600Z,22.70
2019-03-19T12:28:21.000Z,24.70
2019-03-19T12:30:52.125Z,24.90
2019-03-19T12:33:23.183Z,25.00
2019-03-19T12:35:54.511Z,25.10
2019-03-19T12:38:25.583Z,24.80
2019-03-19T12:40:57.643Z,25.70
2019-03-19T12:43:29.695Z,25.90
2019-03-19T12:46:00.915Z,26.70
2019-03-19T12:48:32.199Z,26.80
2019-03-19T12:51:03.482Z,24.80
2019-03-19T12:53:34.493Z,24.60
2019-03-19T12:56:24.205Z,24.90
2019-03-19T12:58:56.130Z,24.10
2019-03-19T13:01:28.568Z,23.70
2019-03-19T13:03:59.716Z,24.40
2019-03-19T13:06:30.807Z,24.00
2019-03-19T13:09:02.033Z,23.70
2019-03-19T13:11:34.806Z,23.40
2019-03-19T13:14:06.059Z,22.70
2019-03-19T13:16:37.234Z,21.90
2019-03-19T13:19:08.913Z,22.30
2019-03-19T13:21:40.167Z,22.40
2019-03-19T13:24:12.198Z,22.60
2019-03-19T13:26:43.401Z,23.70
2019-03-19T13:29:14.409Z,23.20
2019-03-19T13:31:45.501Z,22.10
2019-03-19T13:34:16.625Z,21.90
2019-03-19T13:36:47.772Z,22.50
2019-03-19T13:39:19.960Z,22.80
2019-03-19T13:41:51.078Z,22.60
2019-03-19T13:44:22.164Z,22.50
2019-03-19T13:46:54.118Z,23.10
2019-03-19T13:49:25.134Z,21.80
2019-03-19T13:51:56.854Z,21.90
2019-03-19T13:54:27.855Z,21.90
2019-03-19T13:56:59.044Z,21.50
2019-03-19T13:59:30.147Z,21.80
2019-03-19T14:02:03.431Z,21.30
2019-03-19T14:04:34.345Z,21.40
2019-03-19T14:07:05.963Z,20.70
2019-03-19T14:09:37.492Z,20.20
2019-03-19T14:12:10.267Z,20.70
2019-03-19T14:14:42.010Z,20.00
2019-03-19T14:17:13.568Z,20.20
2019-03-19T14:19:44.970Z,19.20
2019-03-19T14:22:16.562Z,19.10
2019-03-19T14:24:47.878Z,19.40
2019-03-19T14:27:19.021Z,20.20
2019-03-19T14:29:51.760Z,19.00
2019-03-19T14:32:23.093Z,17.30
2019-03-19T14:34:55.677Z,17.70
2019-03-19T14:37:27.691Z,18.10
2019-03-19T14:39:58.703Z,18.40
2019-03-19T14:42:29.898Z,18.30
2019-03-19T14:45:01.075Z,18.30
2019-03-19T14:47:40.932Z,18.50
2019-03-19T14:50:13.335Z,18.80
2019-03-19T14:52:44.289Z,18.50
2019-03-19T14:55:15.269Z,18.40
2019-03-19T14:57:46.262Z,18.40
2019-03-19T15:00:17.259Z,18.80
2019-03-19T15:02:48.128Z,18.90
2019-03-19T15:05:19.059Z,19.00
2019-03-19T15:07:50.311Z,18.40
2019-03-19T15:10:21.566Z,18.00
2019-03-19T15:12:53.285Z,17.90
2019-03-19T15:15:24.379Z,17.00
2019-03-19T15:17:55.529Z,17.50
2019-03-19T15:20:26.707Z,17.40
2019-03-19T15:22:58.043Z,17.10
2019-03-19T15:25:29.444Z,17.30
2019-03-19T15:28:00.765Z,17.60
2019-03-19T15:30:32.940Z,18.00
2019-03-19T15:33:04.254Z,18.40
2019-03-19T15:35:35.534Z,18.10
2019-03-19T15:38:07.134Z,17.50
2019-03-19T15:40:38.392Z,17.10
2019-03-19T15:43:09.873Z,17.80
2019-03-19T15:45:41.143Z,18.60
2019-03-19T15:48:12.497Z,19.40
2019-03-19T15:50:44.023Z,20.20
2019-03-19T15:53:15.526Z,20.50
2019-03-19T15:55:47.281Z,20.50
2019-03-19T15:58:19.210Z,21.40
2019-03-19T16:00:50.255Z,21.70
2019-03-19T16:03:21.963Z,21.40
2019-03-19T16:05:53.684Z,22.40
2019-03-19T16:08:25.445Z,23.30
2019-03-19T16:10:57.126Z,23.30
2019-03-19T16:13:29.179Z,24.20
2019-03-19T16:16:00.897Z,24.30
2019-03-19T16:18:32.395Z,24.60
2019-03-19T16:21:03.448Z,24.90
2019-03-19T16:23:34.714Z,25.20
2019-03-19T16:26:07.194Z,27.30
2019-03-19T16:28:38.406Z,29.20
2019-03-19T16:31:09.881Z,30.40
2019-03-19T16:33:41.274Z,31.70
2019-03-19T16:36:12.559Z,32.80
2019-03-19T16:38:44.210Z,33.60
2019-03-19T16:41:15.519Z,34.40
2019-03-19T16:43:46.730Z,34.80
2019-03-19T16:46:18.265Z,35.20
2019-03-19T16:48:50.196Z,35.60
2019-03-19T16:51:21.458Z,35.80
2019-03-19T16:53:53.187Z,35.90
2019-03-19T16:56:24.530Z,36.10
2019-03-19T16:58:55.998Z,36.00
2019-03-19T17:01:27.282Z,36.20
2019-03-19T17:03:58.496Z,36.30
2019-03-19T17:06:29.777Z,36.40
2019-03-19T17:09:01.125Z,36.50
2019-03-19T17:11:34.011Z,36.70
2019-03-19T17:14:05.861Z,36.80
2019-03-19T17:16:37.739Z,36.80
2019-03-19T17:19:09.534Z,37.10
2019-03-19T17:21:41.100Z,37.10
2019-03-19T17:24:14.018Z,37.50
2019-03-19T17:26:46.007Z,37.90
2019-03-19T17:29:18.090Z,38.10
2019-03-19T17:31:49.691Z,38.50
2019-03-19T17:34:21.509Z,38.70
2019-03-19T17:36:52.750Z,38.90
2019-03-19T17:39:24.350Z,39.20
2019-03-19T17:41:55.959Z,39.40
2019-03-19T17:44:27.387Z,39.50
2019-03-19T17:46:58.740Z,39.70
2019-03-19T17:49:31.252Z,39.80
2019-03-19T17:52:02.698Z,40.00
2019-03-19T17:54:33.954Z,40.10
2019-03-19T17:57:05.390Z,40.50
2019-03-19T17:59:36.899Z,40.70
2019-03-19T18:02:08.475Z,40.80
2019-03-19T18:04:40.138Z,41.00
2019-03-19T18:07:11.768Z,41.20
2019-03-19T18:09:43.473Z,41.30
2019-03-19T18:12:15.329Z,41.50
2019-03-19T18:14:47.028Z,41.80
2019-03-19T18:17:18.489Z,42.00
2019-03-19T18:19:49.777Z,42.30
2019-03-19T18:22:21.215Z,42.40
2019-03-19T18:24:52.719Z,42.70
2019-03-19T18:27:24.326Z,43.00
2019-03-19T18:29:56.365Z,43.20
2019-03-19T18:32:34.945Z,43.50
2019-03-19T18:35:01.648Z,43.90
2019-03-19T18:37:35.007Z,44.20
2019-03-19T18:40:07.288Z,44.30
2019-03-19T18:42:38.825Z,44.60
2019-03-19T18:45:10.973Z,44.70
2019-03-19T18:47:42.570Z,45.00
2019-03-19T18:50:15.461Z,45.20
2019-03-19T18:52:47.282Z,45.40
2019-03-19T18:55:18.903Z,45.50
2019-03-19T18:57:50.381Z,45.70
2019-03-19T19:00:21.920Z,45.80
2019-03-19T19:02:53.321Z,46.20
2019-03-19T19:05:25.011Z,46.40
2019-03-19T19:07:56.693Z,46.80
2019-03-19T19:10:28.361Z,47.90
2019-03-19T19:12:59.680Z,47.40
2019-03-19T19:15:31.596Z,47.70
2019-03-19T19:18:03.064Z,48.00
2019-03-19T19:20:34.417Z,48.20
2019-03-19T19:23:05.727Z,48.50
2019-03-19T19:25:37.332Z,48.70
2019-03-19T19:28:08.844Z,49.20
2019-03-19T19:30:40.717Z,49.50
2019-03-19T19:33:12.197Z,49.70
2019-03-19T19:35:43.696Z,50.00
2019-03-19T19:38:16.396Z,50.00
2019-03-19T19:40:47.909Z,50.20
2019-03-19T19:43:19.396Z,50.40
2019-03-19T19:45:50.870Z,50.90
2019-03-19T19:48:22.178Z,51.20
2019-03-19T19:50:54.002Z,51.20
2019-03-19T19:53:26.074Z,51.50
2019-03-19T19:55:57.800Z,51.80
2019-03-19T19:58:29.644Z,52.30
2019-03-19T20:01:01.210Z,52.60
2019-03-19T20:03:32.489Z,52.80
2019-03-19T20:06:03.751Z,52.70
2019-03-19T20:08:34.816Z,52.90
2019-03-19T20:11:06.149Z,53.20
2019-03-19T20:13:37.348Z,53.40
2019-03-19T20:16:08.505Z,53.60
2019-03-19T20:18:39.425Z,53.90
2019-03-19T20:21:10.588Z,54.40
2019-03-19T20:23:41.678Z,54.60
2019-03-19T20:26:12.893Z,54.60
2019-03-19T20:28:44.003Z,54.80
2019-03-19T20:31:15.740Z,55.10
2019-03-19T20:33:47.300Z,55.30
2019-03-19T20:36:18.612Z,55.60
2019-03-19T20:38:50.013Z,55.80
2019-03-19T20:41:22.268Z,55.60
2019-03-19T20:43:53.533Z,55.70
2019-03-19T20:46:24.913Z,55.50
2019-03-19T20:48:56.092Z,55.90
2019-03-19T20:51:29.890Z,55.90
2019-03-19T20:54:00.927Z,55.90
2019-03-19T20:56:32.002Z,55.80
2019-03-19T20:59:03.247Z,55.90
2019-03-19T21:01:34.475Z,56.10
2019-03-19T21:04:05.838Z,56.20
2019-03-19T21:06:37.130Z,56.20
2019-03-19T21:09:09.352Z,56.50
2019-03-19T21:11:40.372Z,56.50
2019-03-19T21:14:11.672Z,56.80
2019-03-19T21:16:47.050Z,56.70
2019-03-19T21:19:18.270Z,57.10
2019-03-19T21:21:49.362Z,57.10
2019-03-19T21:24:20.503Z,57.40
2019-03-19T21:26:53.271Z,57.60
2019-03-19T21:29:24.524Z,57.60
2019-03-19T21:31:55.562Z,57.80
2019-03-19T21:34:26.702Z,57.90
2019-03-19T21:36:57.783Z,58.00
2019-03-19T21:39:28.799Z,58.00
2019-03-19T21:41:59.904Z,58.40
2019-03-19T21:44:32.071Z,58.60
2019-03-19T21:47:03.284Z,58.60
2019-03-19T21:49:34.513Z,58.50
2019-03-19T21:52:05.764Z,58.40
2019-03-19T21:54:37.774Z,58.60
2019-03-19T21:57:09.831Z,58.70
2019-03-19T21:59:40.762Z,58.80
2019-03-19T22:02:12.968Z,58.80
2019-03-19T22:04:44.116Z,58.90
2019-03-19T22:07:15.217Z,59.10
2019-03-19T22:09:46.925Z,59.20
2019-03-19T22:12:17.929Z,59.20
2019-03-19T22:14:49.039Z,59.50
2019-03-19T22:17:20.249Z,59.70
2019-03-19T22:19:54.523Z,60.10
2019-03-19T22:22:25.733Z,60.10
2019-03-19T22:24:56.713Z,60.10
2019-03-19T22:27:27.688Z,60.20
2019-03-19T22:29:58.644Z,60.20
2019-03-19T22:32:29.607Z,60.30
2019-03-19T22:35:00.562Z,60.20
2019-03-19T22:37:31.655Z,60.40
2019-03-19T22:40:02.656Z,60.60
2019-03-19T22:42:33.954Z,60.60
2019-03-19T22:45:05.614Z,60.50
2019-03-19T22:47:36.556Z,60.70
2019-03-19T22:50:08.212Z,60.80
2019-03-19T22:52:39.144Z,61.10
2019-03-19T22:55:10.364Z,61.10
2019-03-19T22:57:41.394Z,61.30
2019-03-19T23:00:17.986Z,61.30
2019-03-19T23:02:50.624Z,61.40
2019-03-19T23:05:21.777Z,61.90
2019-03-19T23:07:52.809Z,62.00
2019-03-19T23:10:23.935Z,62.10
2019-03-19T23:12:55.178Z,62.00
2019-03-19T23:15:26.409Z,62.10
2019-03-19T23:17:57.471Z,61.90
2019-03-19T23:20:28.735Z,62.00
2019-03-19T23:22:59.898Z,62.00
2019-03-19T23:25:31.003Z,62.20
2019-03-19T23:28:02.152Z,62.40
2019-03-19T23:30:34.856Z,62.40
2019-03-19T23:33:06.475Z,62.60
2019-03-19T23:35:37.832Z,62.60
2019-03-19T23:38:09.617Z,62.70
2019-03-19T23:40:40.627Z,62.80
2019-03-19T23:43:11.656Z,63.20
2019-03-19T23:45:42.736Z,63.10
2019-03-19T23:48:13.833Z,63.00
2019-03-19T23:50:44.829Z,63.00
2019-03-19T23:53:15.739Z,63.00
2019-03-19T23:55:46.965Z,63.20
2019-03-19T23:58:18.124Z,63.40
